sensor_id;sensor_type;location;lat;lon;timestamp;temperature;humidity
58983;DHT22;44771;49.982;8.560;2023-12-07T00:02:05;-0.30;99.90
58983;DHT22;44771;49.982;8.560;2023-12-07T00:07:14;-0.40;99.90
58983;DHT22;44771;49.982;8.560;2023-12-07T00:12:17;-0.60;99.90
58983;DHT22;44771;49.982;8.560;2023-12-07T00:17:36;-0.70;99.90
58983;DHT22;44771;49.982;8.560;2023-12-07T00:28:00;-1.00;99.90
58983;DHT22;44771;49.982;8.560;2023-12-07T00:33:06;-1.00;99.90
58983;DHT22;44771;49.982;8.560;2023-12-07T00:38:08;-0.80;99.90
58983;DHT22;44771;49.982;8.560;2023-12-07T00:43:11;-0.70;99.90
58983;DHT22;44771;49.982;8.560;2023-12-07T00:48:16;-0.40;99.90
58983;DHT22;44771;49.982;8.560;2023-12-07T00:53:21;-0.30;99.90
58983;DHT22;44771;49.982;8.560;2023-12-07T00:58:27;-0.60;99.90
58983;DHT22;44771;49.982;8.560;2023-12-07T01:03:29;-1.30;99.90
58983;DHT22;44771;49.982;8.560;2023-12-07T01:08:31;-1.60;99.90
58983;DHT22;44771;49.982;8.560;2023-12-07T01:14:08;-1.70;99.90
58983;DHT22;44771;49.982;8.560;2023-12-07T01:19:27;-1.50;99.90
58983;DHT22;44771;49.982;8.560;2023-12-07T01:25:14;-1.60;99.90
58983;DHT22;44771;49.982;8.560;2023-12-07T01:30:41;-1.60;99.90
58983;DHT22;44771;49.982;8.560;2023-12-07T01:36:04;-1.70;99.90
58983;DHT22;44771;49.982;8.560;2023-12-07T01:41:06;-1.60;99.90
58983;DHT22;44771;49.982;8.560;2023-12-07T01:46:09;-1.70;99.90
58983;DHT22;44771;49.982;8.560;2023-12-07T01:51:11;-2.00;99.90
58983;DHT22;44771;49.982;8.560;2023-12-07T01:56:14;-2.10;99.90
58983;DHT22;44771;49.982;8.560;2023-12-07T02:01:17;-2.10;99.90
58983;DHT22;44771;49.982;8.560;2023-12-07T02:06:19;-2.00;99.90
58983;DHT22;44771;49.982;8.560;2023-12-07T02:11:22;-1.90;99.90
58983;DHT22;44771;49.982;8.560;2023-12-07T02:28:00;-2.00;99.90
58983;DHT22;44771;49.982;8.560;2023-12-07T02:38:49;-1.40;99.90
58983;DHT22;44771;49.982;8.560;2023-12-07T03:12:54;-2.20;99.90
58983;DHT22;44771;49.982;8.560;2023-12-07T03:18:21;-2.30;99.90
58983;DHT22;44771;49.982;8.560;2023-12-07T03:29:59;-2.40;99.90
58983;DHT22;44771;49.982;8.560;2023-12-07T04:07:59;-2.90;99.90
58983;DHT22;44771;49.982;8.560;2023-12-07T04:13:25;-2.90;99.90
58983;DHT22;44771;49.982;8.560;2023-12-07T04:24:38;-2.90;99.90
58983;DHT22;44771;49.982;8.560;2023-12-07T04:29:57;-2.90;99.90
58983;DHT22;44771;49.982;8.560;2023-12-07T04:35:24;-3.20;99.90
58983;DHT22;44771;49.982;8.560;2023-12-07T04:40:51;-3.10;99.90
58983;DHT22;44771;49.982;8.560;2023-12-07T04:45:59;-3.10;99.90
58983;DHT22;44771;49.982;8.560;2023-12-07T04:51:04;-3.20;99.90
58983;DHT22;44771;49.982;8.560;2023-12-07T04:56:49;-3.20;99.90
58983;DHT22;44771;49.982;8.560;2023-12-07T05:02:15;-3.30;99.90
58983;DHT22;44771;49.982;8.560;2023-12-07T05:07:23;-3.40;99.90
58983;DHT22;44771;49.982;8.560;2023-12-07T05:12:47;-3.30;99.90
58983;DHT22;44771;49.982;8.560;2023-12-07T05:17:48;-3.30;99.90
58983;DHT22;44771;49.982;8.560;2023-12-07T05:22:50;-3.10;99.90
58983;DHT22;44771;49.982;8.560;2023-12-07T05:27:54;-3.10;99.90
58983;DHT22;44771;49.982;8.560;2023-12-07T05:32:55;-2.80;99.90
58983;DHT22;44771;49.982;8.560;2023-12-07T05:38:00;-2.40;99.90
58983;DHT22;44771;49.982;8.560;2023-12-07T05:48:31;-2.20;99.90
58983;DHT22;44771;49.982;8.560;2023-12-07T05:53:34;-2.60;99.90
58983;DHT22;44771;49.982;8.560;2023-12-07T05:58:46;-2.60;99.90
58983;DHT22;44771;49.982;8.560;2023-12-07T06:03:55;-2.80;99.90
58983;DHT22;44771;49.982;8.560;2023-12-07T06:09:06;-2.90;99.90
58983;DHT22;44771;49.982;8.560;2023-12-07T06:14:09;-3.10;99.90
58983;DHT22;44771;49.982;8.560;2023-12-07T06:19:11;-3.10;99.90
58983;DHT22;44771;49.982;8.560;2023-12-07T06:24:30;-3.10;99.90
58983;DHT22;44771;49.982;8.560;2023-12-07T06:29:46;-3.00;99.90
58983;DHT22;44771;49.982;8.560;2023-12-07T06:34:48;-3.00;99.90
58983;DHT22;44771;49.982;8.560;2023-12-07T06:39:50;-3.00;99.90
58983;DHT22;44771;49.982;8.560;2023-12-07T06:44:57;-3.20;99.90
58983;DHT22;44771;49.982;8.560;2023-12-07T06:50:02;-3.20;99.90
58983;DHT22;44771;49.982;8.560;2023-12-07T06:55:09;-3.20;99.90
58983;DHT22;44771;49.982;8.560;2023-12-07T07:00:13;-3.10;99.90
58983;DHT22;44771;49.982;8.560;2023-12-07T07:05:15;-3.00;99.90
58983;DHT22;44771;49.982;8.560;2023-12-07T07:10:18;-3.00;99.90
58983;DHT22;44771;49.982;8.560;2023-12-07T07:15:23;-2.90;99.90
58983;DHT22;44771;49.982;8.560;2023-12-07T07:20:28;-2.90;99.90
58983;DHT22;44771;49.982;8.560;2023-12-07T07:25:30;-2.80;99.90
58983;DHT22;44771;49.982;8.560;2023-12-07T07:30:33;-2.60;99.90
58983;DHT22;44771;49.982;8.560;2023-12-07T07:35:35;-2.60;99.90
58983;DHT22;44771;49.982;8.560;2023-12-07T07:40:37;-2.60;99.90
58983;DHT22;44771;49.982;8.560;2023-12-07T07:45:41;-2.40;99.90
58983;DHT22;44771;49.982;8.560;2023-12-07T07:50:42;-2.20;99.90
58983;DHT22;44771;49.982;8.560;2023-12-07T07:55:44;-2.30;99.90
58983;DHT22;44771;49.982;8.560;2023-12-07T08:00:48;-2.20;99.90
58983;DHT22;44771;49.982;8.560;2023-12-07T08:05:53;-2.00;99.90
58983;DHT22;44771;49.982;8.560;2023-12-07T08:10:55;-1.80;99.90
58983;DHT22;44771;49.982;8.560;2023-12-07T08:15:59;-1.60;99.90
58983;DHT22;44771;49.982;8.560;2023-12-07T08:21:01;-1.50;99.90
58983;DHT22;44771;49.982;8.560;2023-12-07T08:26:03;-1.30;99.90
58983;DHT22;44771;49.982;8.560;2023-12-07T08:31:06;-1.30;99.90
58983;DHT22;44771;49.982;8.560;2023-12-07T08:41:43;-1.40;99.90
58983;DHT22;44771;49.982;8.560;2023-12-07T09:24:31;-0.30;99.90
58983;DHT22;44771;49.982;8.560;2023-12-07T09:56:08;0.10;99.90
58983;DHT22;44771;49.982;8.560;2023-12-07T10:01:16;0.10;99.90
58983;DHT22;44771;49.982;8.560;2023-12-07T10:06:48;0.10;99.90
58983;DHT22;44771;49.982;8.560;2023-12-07T10:12:03;-0.20;99.90
58983;DHT22;44771;49.982;8.560;2023-12-07T10:17:06;-0.10;99.90
58983;DHT22;44771;49.982;8.560;2023-12-07T10:22:59;-0.10;99.90
58983;DHT22;44771;49.982;8.560;2023-12-07T10:28:49;0.10;99.90
58983;DHT22;44771;49.982;8.560;2023-12-07T10:34:05;0.20;99.90
58983;DHT22;44771;49.982;8.560;2023-12-07T10:39:24;0.30;99.90
58983;DHT22;44771;49.982;8.560;2023-12-07T10:44:45;0.20;99.90
58983;DHT22;44771;49.982;8.560;2023-12-07T10:49:52;0.40;99.90
58983;DHT22;44771;49.982;8.560;2023-12-07T10:55:03;0.30;99.90
58983;DHT22;44771;49.982;8.560;2023-12-07T11:00:29;0.40;99.90
58983;DHT22;44771;49.982;8.560;2023-12-07T11:05:45;0.30;99.90
58983;DHT22;44771;49.982;8.560;2023-12-07T11:10:53;0.40;99.90
58983;DHT22;44771;49.982;8.560;2023-12-07T11:26:56;0.50;99.90
58983;DHT22;44771;49.982;8.560;2023-12-07T11:38:05;0.60;99.90
58983;DHT22;44771;49.982;8.560;2023-12-07T11:43:16;0.60;99.90
58983;DHT22;44771;49.982;8.560;2023-12-07T11:48:19;0.60;99.90
58983;DHT22;44771;49.982;8.560;2023-12-07T11:53:22;0.60;99.90
58983;DHT22;44771;49.982;8.560;2023-12-07T12:04:10;0.70;99.90
58983;DHT22;44771;49.982;8.560;2023-12-07T12:09:13;0.80;99.90
58983;DHT22;44771;49.982;8.560;2023-12-07T12:14:27;0.90;99.90
58983;DHT22;44771;49.982;8.560;2023-12-07T12:19:32;0.90;99.90
58983;DHT22;44771;49.982;8.560;2023-12-07T12:24:35;0.90;99.90
58983;DHT22;44771;49.982;8.560;2023-12-07T12:29:59;0.90;99.90
58983;DHT22;44771;49.982;8.560;2023-12-07T12:40:52;0.90;99.90
58983;DHT22;44771;49.982;8.560;2023-12-07T12:45:54;1.00;99.90
58983;DHT22;44771;49.982;8.560;2023-12-07T12:51:08;1.20;99.90
58983;DHT22;44771;49.982;8.560;2023-12-07T12:56:13;1.20;99.90
58983;DHT22;44771;49.982;8.560;2023-12-07T13:01:15;1.10;99.90
58983;DHT22;44771;49.982;8.560;2023-12-07T13:06:17;1.00;99.90
58983;DHT22;44771;49.982;8.560;2023-12-07T13:22:45;1.00;99.90
58983;DHT22;44771;49.982;8.560;2023-12-07T13:28:02;1.10;99.90
58983;DHT22;44771;49.982;8.560;2023-12-07T13:33:07;1.10;99.90
58983;DHT22;44771;49.982;8.560;2023-12-07T13:38:27;1.00;99.90
58983;DHT22;44771;49.982;8.560;2023-12-07T13:43:29;1.10;99.90
58983;DHT22;44771;49.982;8.560;2023-12-07T13:48:32;1.00;99.90
58983;DHT22;44771;49.982;8.560;2023-12-07T13:53:35;1.00;99.90
58983;DHT22;44771;49.982;8.560;2023-12-07T14:10:13;1.00;99.90
58983;DHT22;44771;49.982;8.560;2023-12-07T14:15:15;1.00;99.90
58983;DHT22;44771;49.982;8.560;2023-12-07T14:49:20;1.00;99.90
58983;DHT22;44771;49.982;8.560;2023-12-07T15:05:56;1.00;99.90
58983;DHT22;44771;49.982;8.560;2023-12-07T15:12:00;1.00;99.90
58983;DHT22;44771;49.982;8.560;2023-12-07T15:16:50;1.00;99.90
58983;DHT22;44771;49.982;8.560;2023-12-07T15:21:53;0.90;99.90
58983;DHT22;44771;49.982;8.560;2023-12-07T15:26:55;0.70;99.90
58983;DHT22;44771;49.982;8.560;2023-12-07T15:31:57;0.50;99.90
58983;DHT22;44771;49.982;8.560;2023-12-07T15:37:01;0.50;99.90
58983;DHT22;44771;49.982;8.560;2023-12-07T15:42:04;0.70;99.90
58983;DHT22;44771;49.982;8.560;2023-12-07T15:47:06;1.00;99.90
58983;DHT22;44771;49.982;8.560;2023-12-07T15:52:09;1.10;99.90
58983;DHT22;44771;49.982;8.560;2023-12-07T15:57:11;1.00;99.90
58983;DHT22;44771;49.982;8.560;2023-12-07T16:02:16;1.00;99.90
58983;DHT22;44771;49.982;8.560;2023-12-07T16:07:19;0.80;99.90
58983;DHT22;44771;49.982;8.560;2023-12-07T16:12:24;0.60;99.90
58983;DHT22;44771;49.982;8.560;2023-12-07T16:17:28;0.60;99.90
58983;DHT22;44771;49.982;8.560;2023-12-07T16:22:39;0.50;99.90
58983;DHT22;44771;49.982;8.560;2023-12-07T16:27:46;0.40;99.90
58983;DHT22;44771;49.982;8.560;2023-12-07T16:32:56;0.30;99.90
58983;DHT22;44771;49.982;8.560;2023-12-07T16:55:39;0.10;99.90
58983;DHT22;44771;49.982;8.560;2023-12-07T17:00:58;-0.20;99.90
58983;DHT22;44771;49.982;8.560;2023-12-07T17:06:03;-0.40;99.90
58983;DHT22;44771;49.982;8.560;2023-12-07T17:11:07;-0.50;99.90
58983;DHT22;44771;49.982;8.560;2023-12-07T17:16:08;-0.50;99.90
58983;DHT22;44771;49.982;8.560;2023-12-07T17:21:10;-0.60;99.90
58983;DHT22;44771;49.982;8.560;2023-12-07T17:26:14;-0.50;99.90
58983;DHT22;44771;49.982;8.560;2023-12-07T17:31:16;-0.50;99.90
58983;DHT22;44771;49.982;8.560;2023-12-07T17:36:18;-0.50;99.90
58983;DHT22;44771;49.982;8.560;2023-12-07T17:41:21;-0.40;99.90
58983;DHT22;44771;49.982;8.560;2023-12-07T17:51:40;-0.20;99.90
58983;DHT22;44771;49.982;8.560;2023-12-07T17:56:46;-0.10;99.90
58983;DHT22;44771;49.982;8.560;2023-12-07T18:01:54;-0.10;99.90
58983;DHT22;44771;49.982;8.560;2023-12-07T18:06:59;0.00;99.90
58983;DHT22;44771;49.982;8.560;2023-12-07T18:18:21;0.00;99.90
58983;DHT22;44771;49.982;8.560;2023-12-07T18:24:45;-0.10;99.90
58983;DHT22;44771;49.982;8.560;2023-12-07T18:29:26;0.00;99.90
58983;DHT22;44771;49.982;8.560;2023-12-07T18:36:41;-0.10;99.90
58983;DHT22;44771;49.982;8.560;2023-12-07T18:40:11;-0.30;99.90
58983;DHT22;44771;49.982;8.560;2023-12-07T18:45:13;-0.20;99.90
58983;DHT22;44771;49.982;8.560;2023-12-07T18:50:17;-0.20;99.90
58983;DHT22;44771;49.982;8.560;2023-12-07T18:55:20;-0.20;99.90
58983;DHT22;44771;49.982;8.560;2023-12-07T19:00:43;-0.20;99.90
58983;DHT22;44771;49.982;8.560;2023-12-07T19:05:46;-0.20;99.90
58983;DHT22;44771;49.982;8.560;2023-12-07T19:10:51;-0.30;99.90
58983;DHT22;44771;49.982;8.560;2023-12-07T19:15:55;-0.30;99.90
58983;DHT22;44771;49.982;8.560;2023-12-07T19:21:00;-0.40;99.90
58983;DHT22;44771;49.982;8.560;2023-12-07T19:26:02;-0.50;99.90
58983;DHT22;44771;49.982;8.560;2023-12-07T19:31:11;-0.80;99.90
58983;DHT22;44771;49.982;8.560;2023-12-07T19:36:29;-1.00;99.90
58983;DHT22;44771;49.982;8.560;2023-12-07T19:41:42;-1.30;99.90
58983;DHT22;44771;49.982;8.560;2023-12-07T19:46:46;-1.50;99.90
58983;DHT22;44771;49.982;8.560;2023-12-07T19:51:52;-1.50;99.90
58983;DHT22;44771;49.982;8.560;2023-12-07T20:08:29;-1.60;99.90
58983;DHT22;44771;49.982;8.560;2023-12-07T20:14:07;-1.40;99.90
58983;DHT22;44771;49.982;8.560;2023-12-07T20:19:57;-1.00;99.90
58983;DHT22;44771;49.982;8.560;2023-12-07T20:25:06;-0.90;99.90
58983;DHT22;44771;49.982;8.560;2023-12-07T22:14:34;0.40;99.90
58983;DHT22;44771;49.982;8.560;2023-12-07T22:19:36;0.40;99.90
58983;DHT22;44771;49.982;8.560;2023-12-07T22:24:44;0.40;99.90
58983;DHT22;44771;49.982;8.560;2023-12-07T22:34:56;0.50;99.90
58983;DHT22;44771;49.982;8.560;2023-12-07T22:40:23;0.40;99.90
58983;DHT22;44771;49.982;8.560;2023-12-07T22:50:55;0.50;99.90
58983;DHT22;44771;49.982;8.560;2023-12-07T22:56:33;0.60;99.90
58983;DHT22;44771;49.982;8.560;2023-12-07T23:02:12;0.50;99.90
58983;DHT22;44771;49.982;8.560;2023-12-07T23:07:34;0.60;99.90
58983;DHT22;44771;49.982;8.560;2023-12-07T23:12:39;0.60;99.90
58983;DHT22;44771;49.982;8.560;2023-12-07T23:18:22;0.60;99.90
58983;DHT22;44771;49.982;8.560;2023-12-07T23:23:34;0.70;99.90
58983;DHT22;44771;49.982;8.560;2023-12-07T23:28:37;0.70;99.90
58983;DHT22;44771;49.982;8.560;2023-12-07T23:33:39;0.70;99.90
58983;DHT22;44771;49.982;8.560;2023-12-07T23:39:36;0.70;99.90
58983;DHT22;44771;49.982;8.560;2023-12-07T23:45:11;0.70;99.90
58983;DHT22;44771;49.982;8.560;2023-12-07T23:50:30;0.70;99.90
